createdAt,value
2017-02-23T00:00:39.860Z,30.61
2017-02-23T00:01:20.581Z,30.71
2017-02-23T00:02:01.400Z,31.29
2017-02-23T00:02:42.212Z,31.19
2017-02-23T00:03:22.918Z,31.09
2017-02-23T00:04:03.628Z,31
2017-02-23T00:04:44.420Z,30.91
2017-02-23T00:05:25.216Z,30.73
2017-02-23T00:06:05.976Z,30.61
2017-02-23T00:06:46.698Z,31
2017-02-23T00:07:27.423Z,31.01
2017-02-23T00:08:08.125Z,31.09
2017-02-23T00:08:48.836Z,31.29
2017-02-23T00:09:29.549Z,31.19
2017-02-23T00:10:10.269Z,31
2017-02-23T00:10:51.090Z,31.19
2017-02-23T00:11:31.803Z,30.9
2017-02-23T00:12:12.573Z,31
2017-02-23T00:12:53.345Z,30.8
2017-02-23T00:13:34.068Z,31.19
2017-02-23T00:14:14.810Z,31
2017-02-23T00:14:55.597Z,30.8
2017-02-23T00:15:36.305Z,30.9
2017-02-23T00:16:17.012Z,31.09
2017-02-23T00:16:57.798Z,30.8
2017-02-23T00:17:38.565Z,30.71
2017-02-23T00:18:19.335Z,31.21
2017-02-23T00:19:00.079Z,31.29
2017-02-23T00:19:40.752Z,31.21
2017-02-23T00:20:21.586Z,31.11
2017-02-23T00:21:02.372Z,31.11
2017-02-23T00:21:43.084Z,31.21
2017-02-23T00:22:23.789Z,30.82
2017-02-23T00:23:04.606Z,31.11
2017-02-23T00:23:45.354Z,31.11
2017-02-23T00:24:26.138Z,31.01
2017-02-23T00:25:06.914Z,31.49
2017-02-23T00:25:47.635Z,31.49
2017-02-23T00:26:28.418Z,31.59
2017-02-23T00:27:09.126Z,31.59
2017-02-23T00:27:49.838Z,31.88
2017-02-23T00:28:30.549Z,31.98
2017-02-23T00:29:11.311Z,31.78
2017-02-23T00:29:52.100Z,31.96
2017-02-23T00:30:32.809Z,31.96
2017-02-23T00:31:13.519Z,32.15
2017-02-23T00:31:54.243Z,32.17
2017-02-23T00:32:34.951Z,32.26
2017-02-23T00:33:15.753Z,32.15
2017-02-23T00:33:56.515Z,32.26
2017-02-23T00:34:37.171Z,32.26
2017-02-23T00:35:17.878Z,32.26
2017-02-23T00:35:58.684Z,32.15
2017-02-23T00:36:39.445Z,32.07
2017-02-23T00:37:20.165Z,32.65
2017-02-23T00:38:00.906Z,32.65
2017-02-23T00:38:41.688Z,32.36
2017-02-23T00:39:22.399Z,32.56
2017-02-23T00:40:03.105Z,32.73
2017-02-23T00:40:43.836Z,33.02
2017-02-23T00:41:24.579Z,33.02
2017-02-23T00:42:05.351Z,33.21
2017-02-23T00:42:46.055Z,33.12
2017-02-23T00:43:26.773Z,32.94
2017-02-23T00:44:07.546Z,33.13
2017-02-23T00:44:48.303Z,32.92
2017-02-23T00:45:29.010Z,33.02
2017-02-23T00:46:09.742Z,33.21
2017-02-23T00:46:50.531Z,33.12
2017-02-23T00:47:31.248Z,33.31
2017-02-23T00:48:11.969Z,33.59
2017-02-23T00:48:52.698Z,33.4
2017-02-23T00:49:33.475Z,33.31
2017-02-23T00:50:14.217Z,33.31
2017-02-23T00:50:54.995Z,33.4
2017-02-23T00:51:35.707Z,33.5
2017-02-23T00:52:16.482Z,33.23
2017-02-23T00:52:57.308Z,33.12
2017-02-23T00:53:38.023Z,33.21
2017-02-23T00:54:18.860Z,33.02
2017-02-23T00:54:59.585Z,33.42
2017-02-23T00:55:40.362Z,33.12
2017-02-23T00:56:21.120Z,33.4
2017-02-23T00:57:01.908Z,33.12
2017-02-23T00:57:42.677Z,33.59
2017-02-23T00:58:23.399Z,33.59
2017-02-23T00:59:04.228Z,33.59
2017-02-23T00:59:45.055Z,33.5
2017-02-23T01:00:25.765Z,33.31
2017-02-23T01:01:06.488Z,33.33
2017-02-23T01:01:47.227Z,33.12
2017-02-23T01:02:27.956Z,33.12
2017-02-23T01:03:08.663Z,33.03
2017-02-23T01:03:49.471Z,33.33
2017-02-23T01:04:30.205Z,33.69
2017-02-23T01:05:10.988Z,33.5
2017-02-23T01:05:51.700Z,33.4
2017-02-23T01:06:32.506Z,33.5
2017-02-23T01:07:13.303Z,33.69
2017-02-23T01:07:53.922Z,33.69
2017-02-23T01:08:34.692Z,33.59
2017-02-23T01:09:15.404Z,33.33
2017-02-23T01:09:56.120Z,33.5
2017-02-23T01:10:36.842Z,33.79
2017-02-23T01:11:17.557Z,33.98
2017-02-23T01:11:58.353Z,33.89
2017-02-23T01:12:39.119Z,34.27
2017-02-23T01:13:19.842Z,33.89
2017-02-23T01:14:00.658Z,34.17
2017-02-23T01:14:41.373Z,34.08
2017-02-23T01:15:22.125Z,33.98
2017-02-23T01:16:02.842Z,34.08
2017-02-23T01:16:43.574Z,33.89
2017-02-23T01:17:24.350Z,34.37
2017-02-23T01:18:05.132Z,34.08
2017-02-23T01:18:45.874Z,33.98
2017-02-23T01:19:26.604Z,34.08
2017-02-23T01:20:07.314Z,33.89
2017-02-23T01:20:48.130Z,33.89
2017-02-23T01:21:28.841Z,33.89
2017-02-23T01:22:09.539Z,33.69
2017-02-23T01:22:50.311Z,33.59
2017-02-23T01:23:31.021Z,33.59
2017-02-23T01:24:11.734Z,33.79
2017-02-23T01:24:52.433Z,33.69
2017-02-23T01:25:33.181Z,33.59
2017-02-23T01:26:13.962Z,33.59
2017-02-23T01:26:54.755Z,33.5
2017-02-23T01:27:35.513Z,33.59
2017-02-23T01:28:16.293Z,33.5
2017-02-23T01:28:57.075Z,33.59
2017-02-23T01:29:37.845Z,33.4
2017-02-23T01:30:18.643Z,33.5
2017-02-23T01:30:59.394Z,33.69
2017-02-23T01:31:40.097Z,33.21
2017-02-23T01:32:20.838Z,33.21
2017-02-23T01:33:01.636Z,33.02
2017-02-23T01:33:42.398Z,33.4
2017-02-23T01:34:23.110Z,33.31
2017-02-23T01:35:03.820Z,33.31
2017-02-23T01:35:44.541Z,33.21
2017-02-23T01:36:25.279Z,33.31
2017-02-23T01:37:05.986Z,33.5
2017-02-23T01:37:46.737Z,33.31
2017-02-23T01:38:27.505Z,33.4
2017-02-23T01:39:09.286Z,33.21
2017-02-23T01:39:51.133Z,33.12
2017-02-23T01:40:32.027Z,33.21
2017-02-23T01:41:13.788Z,33.5
2017-02-23T01:41:54.731Z,33.21
2017-02-23T01:42:35.598Z,33.31
2017-02-23T01:46:21.894Z,33.21
2017-02-23T01:47:02.680Z,32.92
2017-02-23T01:47:43.501Z,33.02
2017-02-23T01:48:24.304Z,33.31
2017-02-23T01:49:05.094Z,32.92
2017-02-23T01:49:45.952Z,33.31
2017-02-23T01:50:26.757Z,33.02
2017-02-23T01:51:07.524Z,33.02
2017-02-23T01:51:48.333Z,32.92
2017-02-23T01:52:29.140Z,33.12
2017-02-23T01:53:09.963Z,33.31
2017-02-23T01:53:50.802Z,33.31
2017-02-23T01:54:31.609Z,33.02
2017-02-23T01:55:12.626Z,33.02
2017-02-23T01:55:54.063Z,33.02
2017-02-23T01:56:36.758Z,33.02
2017-02-23T01:57:17.681Z,33.4
2017-02-23T01:57:58.568Z,33.31
2017-02-23T01:58:39.488Z,33.4
2017-02-23T01:59:20.450Z,33.31
2017-02-23T02:00:02.256Z,33.5
2017-02-23T02:00:43.137Z,33.31
2017-02-23T02:01:24.670Z,33.69
2017-02-23T02:02:08.102Z,33.59
2017-02-23T02:02:49.757Z,33.79
2017-02-23T02:03:32.140Z,33.98
2017-02-23T02:04:13.928Z,33.98
2017-02-23T02:04:54.842Z,33.79
2017-02-23T02:05:35.620Z,34.17
2017-02-23T02:06:16.375Z,33.98
2017-02-23T02:06:57.149Z,34.17
2017-02-23T02:07:37.918Z,34.17
2017-02-23T02:08:18.687Z,34.27
2017-02-23T02:09:00.092Z,34.66
2017-02-23T02:09:40.858Z,34.84
2017-02-23T02:10:21.624Z,34.75
2017-02-23T02:11:02.437Z,34.75
2017-02-23T02:11:43.263Z,35.04
2017-02-23T02:12:24.106Z,34.66
2017-02-23T02:13:04.930Z,34.94
2017-02-23T02:13:45.701Z,34.75
2017-02-23T02:14:26.474Z,34.75
2017-02-23T02:15:07.294Z,34.66
2017-02-23T02:15:48.119Z,34.66
2017-02-23T02:16:28.966Z,34.94
2017-02-23T02:17:09.776Z,34.84
2017-02-23T02:17:50.591Z,34.94
2017-02-23T02:18:31.349Z,34.84
2017-02-23T02:19:12.137Z,34.75
2017-02-23T02:19:52.974Z,35.04
2017-02-23T02:20:33.750Z,35.04
2017-02-23T02:21:14.548Z,35.14
2017-02-23T02:21:55.335Z,35.24
2017-02-23T02:22:36.184Z,35.04
2017-02-23T02:23:16.953Z,35.14
2017-02-23T02:23:57.790Z,35.14
2017-02-23T02:24:38.583Z,35.24
2017-02-23T02:25:19.354Z,35.04
2017-02-23T02:26:00.123Z,35.04
2017-02-23T02:26:40.990Z,35.24
2017-02-23T02:27:21.772Z,35.04
2017-02-23T02:28:02.544Z,35.24
2017-02-23T02:28:43.314Z,35.04
2017-02-23T02:29:24.087Z,35.24
2017-02-23T02:30:04.879Z,35.04
2017-02-23T02:30:45.694Z,34.84
2017-02-23T02:31:26.505Z,35.14
2017-02-23T02:32:07.353Z,35.04
2017-02-23T02:32:48.171Z,35.04
2017-02-23T02:33:28.938Z,35.24
2017-02-23T02:34:09.767Z,35.14
2017-02-23T02:34:50.555Z,35.24
2017-02-23T02:35:31.362Z,35.24
2017-02-23T02:36:12.216Z,35.33
2017-02-23T02:36:53.023Z,35.24
2017-02-23T02:37:33.807Z,35.33
2017-02-23T02:38:14.590Z,35.14
2017-02-23T02:38:55.396Z,35.33
2017-02-23T02:39:36.230Z,35.14
2017-02-23T02:40:17.080Z,35.42
2017-02-23T02:40:57.864Z,35.04
2017-02-23T02:41:38.640Z,35.24
2017-02-23T02:42:19.449Z,34.94
2017-02-23T02:43:00.240Z,35.24
2017-02-23T02:43:41.085Z,35.24
2017-02-23T02:44:21.858Z,35.33
2017-02-23T02:45:02.714Z,35.33
2017-02-23T02:45:43.562Z,35.24
2017-02-23T02:46:24.265Z,35.24
2017-02-23T02:47:05.041Z,35.42
2017-02-23T02:47:45.898Z,35.04
2017-02-23T02:48:26.696Z,35.41
2017-02-23T02:49:07.461Z,35.33
2017-02-23T02:49:48.234Z,35.52
2017-02-23T02:50:29.006Z,35.42
2017-02-23T02:51:09.777Z,35.42
2017-02-23T02:51:50.612Z,35.52
2017-02-23T02:52:31.418Z,35.91
2017-02-23T02:53:12.188Z,35.71
2017-02-23T02:53:52.989Z,35.81
2017-02-23T02:54:33.807Z,36.19
2017-02-23T02:55:14.667Z,36.39
2017-02-23T02:55:55.471Z,35.91
2017-02-23T02:56:36.277Z,36.19
2017-02-23T02:57:17.064Z,36
2017-02-23T02:57:57.846Z,36.68
2017-02-23T02:58:38.661Z,36
2017-02-23T02:59:19.480Z,36.37
2017-02-23T03:00:00.329Z,36.58
2017-02-23T03:00:41.125Z,36.49
2017-02-23T03:01:21.889Z,36.77
2017-02-23T03:02:02.694Z,36.97
2017-02-23T03:02:43.491Z,37.06
2017-02-23T03:03:24.332Z,36.97
2017-02-23T03:04:05.097Z,36.97
2017-02-23T03:04:45.865Z,37.16
2017-02-23T03:05:26.636Z,36.87
2017-02-23T03:06:07.415Z,36.97
2017-02-23T03:06:48.191Z,36.87
2017-02-23T03:07:29.003Z,36.97
2017-02-23T03:08:09.816Z,36.87
2017-02-23T03:08:50.588Z,37.06
2017-02-23T03:09:31.423Z,36.87
2017-02-23T03:10:12.224Z,36.97
2017-02-23T03:10:53.078Z,36.97
2017-02-23T03:11:33.846Z,36.87
2017-02-23T03:12:14.681Z,37.06
2017-02-23T03:12:55.428Z,37.06
2017-02-23T03:13:36.238Z,36.87
2017-02-23T03:14:17.059Z,36.87
2017-02-23T03:14:57.780Z,37.06
2017-02-23T03:15:38.443Z,37.06
2017-02-23T03:16:19.100Z,36.87
2017-02-23T03:16:59.794Z,37.16
2017-02-23T03:17:40.563Z,36.97
2017-02-23T03:18:21.219Z,37.16
2017-02-23T03:19:01.873Z,36.97
2017-02-23T03:19:42.566Z,37.06
2017-02-23T03:20:23.310Z,37.06
2017-02-23T03:21:03.985Z,37.06
2017-02-23T03:21:44.631Z,37.34
2017-02-23T03:22:25.364Z,37.34
2017-02-23T03:23:06.029Z,37.16
2017-02-23T03:23:46.763Z,37.26
2017-02-23T03:24:27.413Z,37.45
2017-02-23T03:25:08.123Z,37.35
2017-02-23T03:25:48.763Z,37.26
2017-02-23T03:26:29.503Z,37.14
2017-02-23T03:27:10.202Z,37.45
2017-02-23T03:27:50.865Z,37.26
2017-02-23T03:28:31.556Z,37.62
2017-02-23T03:29:12.291Z,37.26
2017-02-23T03:29:53.003Z,37.35
2017-02-23T03:30:33.652Z,37.34
2017-02-23T03:31:14.293Z,37.64
2017-02-23T03:31:54.946Z,37.62
2017-02-23T03:32:35.589Z,37.54
2017-02-23T03:33:16.229Z,37.64
2017-02-23T03:33:56.972Z,37.35
2017-02-23T03:34:37.609Z,37.74
2017-02-23T03:35:18.266Z,37.83
2017-02-23T03:35:58.971Z,37.54
2017-02-23T03:36:39.649Z,37.74
2017-02-23T03:37:20.290Z,37.54
2017-02-23T03:38:00.925Z,37.64
2017-02-23T03:38:41.631Z,37.62
2017-02-23T03:39:22.286Z,37.74
2017-02-23T03:40:02.947Z,37.74
2017-02-23T03:40:43.570Z,37.74
2017-02-23T03:41:24.200Z,37.52
2017-02-23T03:42:04.903Z,37.74
2017-02-23T03:42:45.538Z,37.93
2017-02-23T03:43:26.176Z,37.74
2017-02-23T03:44:06.810Z,37.72
2017-02-23T03:44:47.450Z,37.74
2017-02-23T03:45:28.078Z,37.83
2017-02-23T03:46:08.743Z,37.83
2017-02-23T03:46:49.372Z,37.72
2017-02-23T03:47:30.005Z,37.72
2017-02-23T03:48:10.667Z,38.01
2017-02-23T03:48:51.316Z,37.83
2017-02-23T03:49:31.943Z,38.29
2017-02-23T03:50:12.600Z,38.39
2017-02-23T03:50:53.312Z,38.1
2017-02-23T03:51:33.936Z,38.2
2017-02-23T03:52:14.620Z,38.22
2017-02-23T03:52:55.338Z,38.2
2017-02-23T03:53:35.965Z,38.2
2017-02-23T03:54:16.641Z,38.22
2017-02-23T03:54:57.299Z,38.31
2017-02-23T03:55:37.967Z,38.22
2017-02-23T03:56:18.613Z,38.41
2017-02-23T03:56:59.293Z,38.29
2017-02-23T03:57:39.918Z,38.01
2017-02-23T03:58:20.540Z,38.2
2017-02-23T03:59:01.268Z,38.22
2017-02-23T03:59:41.986Z,37.91
2017-02-23T04:00:22.618Z,37.91
2017-02-23T04:01:03.289Z,37.93
2017-02-23T04:01:46.245Z,38.49
2017-02-23T04:02:26.941Z,38.39
2017-02-23T04:03:07.567Z,38.2
2017-02-23T04:03:48.195Z,38.2
2017-02-23T04:04:28.873Z,38.49
2017-02-23T04:05:09.518Z,38.51
2017-02-23T04:05:50.127Z,38.49
2017-02-23T04:06:30.847Z,38.51
2017-02-23T04:07:11.509Z,38.49
2017-02-23T04:07:52.192Z,38.49
2017-02-23T04:08:32.833Z,38.49
2017-02-23T04:09:13.458Z,38.49
2017-02-23T04:09:54.082Z,38.59
2017-02-23T04:10:34.844Z,38.59
2017-02-23T04:11:15.583Z,38.39
2017-02-23T04:11:56.249Z,38.68
2017-02-23T04:12:36.874Z,38.78
2017-02-23T04:13:17.516Z,38.7
2017-02-23T04:13:58.142Z,38.59
2017-02-23T04:14:38.764Z,38.78
2017-02-23T04:15:19.426Z,38.79
2017-02-23T04:16:00.049Z,38.7
2017-02-23T04:16:40.682Z,39.09
2017-02-23T04:17:21.344Z,38.97
2017-02-23T04:18:01.965Z,38.78
2017-02-23T04:18:42.656Z,38.89
2017-02-23T04:19:23.386Z,38.87
2017-02-23T04:20:04.071Z,38.97
2017-02-23T04:20:44.716Z,38.97
2017-02-23T04:21:25.412Z,39.06
2017-02-23T04:22:06.130Z,39.09
2017-02-23T04:22:46.766Z,39.45
2017-02-23T04:23:27.391Z,39.36
2017-02-23T04:24:08.089Z,38.79
2017-02-23T04:24:48.713Z,39.45
2017-02-23T04:25:29.450Z,39.37
2017-02-23T04:26:10.085Z,39.37
2017-02-23T04:26:50.802Z,39.26
2017-02-23T04:27:31.446Z,39.18
2017-02-23T04:28:12.069Z,39.16
2017-02-23T04:28:52.772Z,39.26
2017-02-23T04:29:33.405Z,39.16
2017-02-23T04:30:14.034Z,39.64
2017-02-23T04:30:54.699Z,39.56
2017-02-23T04:31:35.323Z,39.45
2017-02-23T04:32:15.952Z,39.45
2017-02-23T04:32:56.653Z,39.06
2017-02-23T04:33:37.291Z,39.16
2017-02-23T04:34:18.021Z,39.54
2017-02-23T04:34:58.661Z,39.54
2017-02-23T04:35:39.292Z,39.66
2017-02-23T04:36:20.010Z,39.64
2017-02-23T04:37:00.657Z,39.54
2017-02-23T04:37:41.390Z,39.56
2017-02-23T04:38:21.907Z,39.56
2017-02-23T04:39:02.540Z,39.93
2017-02-23T04:39:43.159Z,40.03
2017-02-23T04:40:23.875Z,39.54
2017-02-23T04:41:04.571Z,40.12
2017-02-23T04:41:45.236Z,39.64
2017-02-23T04:42:25.882Z,40.12
2017-02-23T04:43:06.510Z,39.93
2017-02-23T04:43:47.208Z,39.64
2017-02-23T04:44:27.835Z,40.05
2017-02-23T04:45:08.472Z,40.31
2017-02-23T04:45:49.142Z,40.03
2017-02-23T04:46:29.769Z,40.31
2017-02-23T04:47:10.462Z,40.22
2017-02-23T04:47:51.143Z,40.03
2017-02-23T04:48:31.773Z,40.22
2017-02-23T04:49:12.462Z,40.14
2017-02-23T04:49:53.113Z,40.22
2017-02-23T04:50:33.740Z,40.22
2017-02-23T04:51:14.372Z,40.14
2017-02-23T04:51:55.027Z,40.12
2017-02-23T04:52:35.656Z,40.31
2017-02-23T04:53:16.288Z,40.43
2017-02-23T04:53:56.955Z,40.61
2017-02-23T04:54:37.585Z,40.41
2017-02-23T04:55:18.213Z,40.51
2017-02-23T04:55:58.893Z,40.31
2017-02-23T04:56:39.520Z,40.43
2017-02-23T04:57:20.148Z,40.31
2017-02-23T04:58:00.789Z,40.63
2017-02-23T04:58:41.417Z,40.51
2017-02-23T04:59:22.057Z,40.14
2017-02-23T05:00:02.742Z,40.22
2017-02-23T05:00:43.368Z,40.41
2017-02-23T05:01:24.000Z,40.22
2017-02-23T05:02:04.648Z,40.31
2017-02-23T05:02:45.294Z,40.51
2017-02-23T05:03:25.922Z,40.61
2017-02-23T05:04:06.603Z,40.51
2017-02-23T05:04:47.226Z,40.53
2017-02-23T05:05:27.847Z,40.63
2017-02-23T05:06:08.472Z,40.7
2017-02-23T05:06:49.095Z,40.31
2017-02-23T05:07:29.721Z,40.8
2017-02-23T05:08:10.407Z,40.61
2017-02-23T05:08:51.031Z,40.63
2017-02-23T05:09:31.711Z,40.8
2017-02-23T05:10:12.432Z,40.99
2017-02-23T05:10:53.070Z,40.99
2017-02-23T05:11:33.696Z,40.89
2017-02-23T05:12:14.377Z,40.91
2017-02-23T05:12:54.999Z,41.08
2017-02-23T05:13:35.630Z,41.08
2017-02-23T05:14:16.317Z,40.89
2017-02-23T05:14:56.954Z,41.08
2017-02-23T05:15:37.575Z,41.18
2017-02-23T05:16:18.236Z,40.99
2017-02-23T05:16:58.868Z,40.99
2017-02-23T05:17:39.499Z,40.99
2017-02-23T05:18:20.167Z,40.81
2017-02-23T05:19:00.861Z,40.89
2017-02-23T05:19:41.510Z,41.11
2017-02-23T05:20:22.179Z,40.99
2017-02-23T05:21:02.923Z,41.08
2017-02-23T05:21:43.547Z,41.28
2017-02-23T05:22:24.207Z,41.08
2017-02-23T05:23:04.838Z,41.28
2017-02-23T05:23:45.468Z,41.38
2017-02-23T05:24:26.132Z,41.28
2017-02-23T05:25:06.757Z,41.3
2017-02-23T05:25:47.393Z,41.18
2017-02-23T05:26:28.060Z,41.39
2017-02-23T05:27:08.679Z,41.28
2017-02-23T05:27:49.311Z,41.47
2017-02-23T05:28:30.002Z,41.47
2017-02-23T05:29:10.709Z,41.47
2017-02-23T05:29:51.396Z,41.38
2017-02-23T05:30:31.968Z,41.47
2017-02-23T05:31:12.668Z,41.38
2017-02-23T05:31:53.402Z,41.38
2017-02-23T05:32:34.056Z,41.76
2017-02-23T05:33:14.696Z,41.38
2017-02-23T05:33:55.455Z,41.38
2017-02-23T05:34:36.085Z,41.38
2017-02-23T05:35:16.732Z,41.47
2017-02-23T05:35:57.361Z,41.56
2017-02-23T05:36:38.002Z,41.38
2017-02-23T05:37:18.649Z,41.38
2017-02-23T05:37:59.282Z,41.56
2017-02-23T05:38:39.908Z,41.56
2017-02-23T05:39:20.572Z,41.56
2017-02-23T05:40:01.204Z,41.47
2017-02-23T05:40:41.829Z,41.38
2017-02-23T05:41:22.505Z,41.38
2017-02-23T05:42:03.135Z,41.47
2017-02-23T05:42:43.763Z,41.28
2017-02-23T05:43:24.437Z,41.18
2017-02-23T05:44:05.128Z,41.08
2017-02-23T05:44:45.765Z,41.08
2017-02-23T05:45:26.412Z,41.08
2017-02-23T05:46:07.103Z,40.99
2017-02-23T05:46:47.732Z,41.08
2017-02-23T05:47:28.359Z,40.99
2017-02-23T05:48:09.080Z,40.99
2017-02-23T05:48:49.782Z,41.08
2017-02-23T05:49:30.409Z,41.08
2017-02-23T05:50:11.073Z,41.08
2017-02-23T05:50:51.700Z,40.89
2017-02-23T05:51:32.334Z,40.99
2017-02-23T05:52:12.984Z,41.08
2017-02-23T05:52:53.638Z,40.99
2017-02-23T05:53:34.270Z,40.99
2017-02-23T05:54:14.923Z,41.08
2017-02-23T05:54:55.651Z,41.08
2017-02-23T05:55:36.281Z,40.89
2017-02-23T05:56:16.943Z,41.08
2017-02-23T05:56:57.574Z,41.28
2017-02-23T05:57:38.200Z,40.99
2017-02-23T05:58:18.873Z,40.89
2017-02-23T05:58:59.494Z,40.89
2017-02-23T05:59:40.118Z,40.89
2017-02-23T06:00:20.793Z,41.08
2017-02-23T06:01:01.416Z,41.28
2017-02-23T06:01:42.044Z,40.99
2017-02-23T06:02:22.722Z,40.99
2017-02-23T06:03:03.443Z,40.89
2017-02-23T06:03:44.171Z,40.8
2017-02-23T06:04:24.818Z,40.99
2017-02-23T06:05:05.493Z,40.99
2017-02-23T06:05:46.230Z,41.18
2017-02-23T06:06:26.859Z,41.08
2017-02-23T06:07:07.484Z,41.18
2017-02-23T06:07:48.119Z,41.08
2017-02-23T06:08:28.741Z,40.99
2017-02-23T06:09:09.415Z,41.08
2017-02-23T06:09:50.050Z,41.08
2017-02-23T06:10:30.681Z,41.08
2017-02-23T06:11:11.347Z,41.08
2017-02-23T06:11:52.016Z,40.89
2017-02-23T06:12:32.643Z,41.18
2017-02-23T06:13:13.303Z,40.89
2017-02-23T06:13:53.928Z,40.99
2017-02-23T06:14:34.554Z,41.08
2017-02-23T06:15:15.247Z,40.99
2017-02-23T06:15:55.854Z,41.08
2017-02-23T06:16:36.480Z,41.28
2017-02-23T06:17:17.164Z,40.89
2017-02-23T06:17:57.881Z,40.99
2017-02-23T06:18:38.510Z,40.99
2017-02-23T06:19:19.186Z,40.89
2017-02-23T06:19:59.845Z,40.8
2017-02-23T06:20:40.469Z,41.08
2017-02-23T06:21:21.095Z,41.18
2017-02-23T06:22:01.806Z,40.99
2017-02-23T06:22:42.439Z,40.99
2017-02-23T06:23:23.072Z,41.08
2017-02-23T06:24:03.758Z,41.08
2017-02-23T06:24:44.383Z,41.18
2017-02-23T06:25:25.011Z,40.8
2017-02-23T06:26:05.692Z,41.08
2017-02-23T06:26:46.374Z,40.89
2017-02-23T06:27:27.007Z,41.18
2017-02-23T06:28:07.644Z,41.08
2017-02-23T06:28:48.277Z,40.8
2017-02-23T06:29:28.908Z,41.08
2017-02-23T06:30:09.584Z,41.08
2017-02-23T06:30:50.277Z,41.08
2017-02-23T06:31:30.909Z,40.89
2017-02-23T06:32:11.563Z,40.99
2017-02-23T06:32:52.195Z,41.28
2017-02-23T06:33:32.826Z,41.08
2017-02-23T06:34:13.493Z,41.28
2017-02-23T06:34:54.134Z,41.28
2017-02-23T06:35:34.756Z,41.28
2017-02-23T06:36:15.418Z,41.28
2017-02-23T06:36:56.066Z,41.38
2017-02-23T06:37:36.740Z,41.56
2017-02-23T06:38:17.391Z,41.47
2017-02-23T06:38:58.099Z,41.38
2017-02-23T06:39:38.761Z,41.47
2017-02-23T06:40:19.402Z,41.66
2017-02-23T06:41:00.068Z,41.66
2017-02-23T06:41:40.736Z,41.86
2017-02-23T06:42:21.362Z,41.86
2017-02-23T06:43:02.105Z,41.95
2017-02-23T06:43:42.734Z,41.76
2017-02-23T06:44:23.366Z,41.86
2017-02-23T06:45:04.024Z,41.95
2017-02-23T06:45:44.651Z,41.76
2017-02-23T06:46:25.281Z,41.95
2017-02-23T06:47:05.931Z,41.86
2017-02-23T06:47:46.588Z,41.95
2017-02-23T06:48:27.219Z,41.95
2017-02-23T06:49:07.892Z,42.05
2017-02-23T06:49:48.554Z,42.14
2017-02-23T06:50:29.181Z,42.14
2017-02-23T06:51:09.892Z,42.14
2017-02-23T06:51:50.649Z,42.24
2017-02-23T06:52:31.277Z,42.43
2017-02-23T06:53:11.901Z,42.33
2017-02-23T06:53:52.581Z,42.24
2017-02-23T06:54:33.205Z,42.14
2017-02-23T06:55:13.827Z,42.14
2017-02-23T06:55:54.497Z,42.63
2017-02-23T06:56:35.206Z,42.53
2017-02-23T06:57:15.853Z,42.53
2017-02-23T06:57:56.571Z,42.53
2017-02-23T06:58:37.205Z,42.53
2017-02-23T06:59:17.835Z,42.53
2017-02-23T06:59:58.530Z,42.53
2017-02-23T07:00:39.188Z,42.72
2017-02-23T07:01:19.814Z,42.82
2017-02-23T07:02:00.473Z,42.72
2017-02-23T07:02:41.098Z,42.72
2017-02-23T07:03:21.722Z,42.82
2017-02-23T07:04:02.411Z,42.82
2017-02-23T07:04:43.125Z,42.72
2017-02-23T07:05:23.790Z,42.72
2017-02-23T07:06:04.429Z,42.91
2017-02-23T07:06:45.119Z,42.72
2017-02-23T07:07:25.753Z,42.82
2017-02-23T07:08:06.380Z,42.72
2017-02-23T07:08:47.081Z,43.11
2017-02-23T07:09:27.707Z,42.82
2017-02-23T07:10:08.345Z,42.91
2017-02-23T07:10:49.042Z,43.01
2017-02-23T07:11:29.800Z,42.91
2017-02-23T07:12:10.417Z,43.01
2017-02-23T07:12:51.734Z,43.01
2017-02-23T07:13:32.354Z,43.01
2017-02-23T07:14:13.046Z,42.91
2017-02-23T07:14:53.775Z,42.91
2017-02-23T07:15:34.419Z,43.11
2017-02-23T07:16:15.076Z,43.01
2017-02-23T07:16:55.827Z,43.11
2017-02-23T07:17:36.540Z,42.82
2017-02-23T07:18:17.171Z,43.11
2017-02-23T07:18:57.867Z,43.11
2017-02-23T07:19:38.607Z,42.82
2017-02-23T07:20:19.242Z,43.3
2017-02-23T07:20:59.874Z,43.4
2017-02-23T07:21:40.524Z,43.4
2017-02-23T07:22:21.200Z,43.2
2017-02-23T07:23:01.843Z,43.4
2017-02-23T07:23:42.513Z,43.49
2017-02-23T07:24:23.144Z,43.2
2017-02-23T07:25:03.775Z,43.3
2017-02-23T07:25:44.446Z,43.3
2017-02-23T07:26:25.079Z,43.01
2017-02-23T07:27:05.715Z,43.49
2017-02-23T07:27:46.416Z,43.49
2017-02-23T07:28:27.112Z,43.4
2017-02-23T07:29:07.740Z,43.4
2017-02-23T07:29:48.395Z,43.3
2017-02-23T07:30:29.030Z,43.59
2017-02-23T07:31:09.676Z,43.3
2017-02-23T07:31:50.421Z,43.78
2017-02-23T07:32:31.124Z,43.68
2017-02-23T07:33:11.780Z,43.2
2017-02-23T07:33:52.400Z,43.3
2017-02-23T07:34:33.100Z,43.4
2017-02-23T07:35:13.728Z,43.4
2017-02-23T07:35:54.355Z,43.78
2017-02-23T07:36:35.023Z,43.68
2017-02-23T07:37:15.652Z,43.78
2017-02-23T07:37:56.301Z,43.78
2017-02-23T07:38:36.991Z,43.4
2017-02-23T07:39:17.619Z,43.2
2017-02-23T07:39:58.261Z,43.49
2017-02-23T07:40:38.975Z,43.2
2017-02-23T07:41:19.697Z,43.88
2017-02-23T07:42:00.315Z,43.78
2017-02-23T07:42:40.993Z,43.78
2017-02-23T07:43:21.653Z,43.78
2017-02-23T07:44:02.346Z,43.68
2017-02-23T07:44:42.908Z,43.88
2017-02-23T07:45:23.624Z,43.78
2017-02-23T07:46:04.251Z,43.78
2017-02-23T07:46:44.879Z,43.68
2017-02-23T07:47:25.547Z,43.59
2017-02-23T07:48:06.279Z,43.66
2017-02-23T07:48:46.915Z,43.68
2017-02-23T07:49:27.568Z,43.88
2017-02-23T07:50:08.324Z,43.88
2017-02-23T07:50:48.965Z,43.97
2017-02-23T07:51:29.605Z,43.78
2017-02-23T07:52:10.234Z,43.66
2017-02-23T07:52:50.872Z,43.78
2017-02-23T07:53:31.575Z,43.88
2017-02-23T07:54:12.243Z,43.66
2017-02-23T07:54:52.878Z,43.68
2017-02-23T07:55:33.503Z,43.76
2017-02-23T07:56:14.197Z,43.66
2017-02-23T07:56:54.891Z,43.85
2017-02-23T07:57:35.540Z,43.95
2017-02-23T07:58:16.194Z,43.76
2017-02-23T07:58:56.822Z,43.66
2017-02-23T07:59:37.451Z,43.76
2017-02-23T08:00:18.118Z,43.66
2017-02-23T08:00:58.753Z,43.66
2017-02-23T08:01:39.391Z,43.66
2017-02-23T08:02:20.025Z,43.57
2017-02-23T08:03:00.670Z,43.66
2017-02-23T08:03:41.315Z,43.57
2017-02-23T08:04:21.983Z,43.76
2017-02-23T08:05:02.619Z,43.76
2017-02-23T08:05:43.257Z,43.68
2017-02-23T08:06:23.945Z,43.28
2017-02-23T08:07:04.668Z,43.28
2017-02-23T08:07:45.294Z,43.37
2017-02-23T08:08:25.958Z,43.3
2017-02-23T08:09:06.596Z,43.37
2017-02-23T08:09:47.220Z,43.4
2017-02-23T08:10:27.898Z,43.57
2017-02-23T08:11:08.594Z,43.49
2017-02-23T08:11:49.227Z,43.47
2017-02-23T08:12:29.855Z,43.4
2017-02-23T08:13:10.561Z,43.4
2017-02-23T08:13:51.208Z,43.08
2017-02-23T08:14:31.840Z,43.11
2017-02-23T08:15:12.489Z,43.59
2017-02-23T08:15:53.130Z,43.4
2017-02-23T08:16:33.759Z,42.82
2017-02-23T08:17:14.428Z,43.37
2017-02-23T08:17:55.061Z,43.4
2017-02-23T08:18:35.688Z,43.08
2017-02-23T08:19:16.411Z,43.2
2017-02-23T08:19:57.096Z,43.2
2017-02-23T08:20:37.723Z,42.7
2017-02-23T08:21:18.379Z,43.11
2017-02-23T08:21:59.107Z,42.91
2017-02-23T08:22:39.734Z,43.01
2017-02-23T08:23:21.214Z,42.91
2017-02-23T08:24:01.881Z,42.8
2017-02-23T08:24:42.512Z,43.37
2017-02-23T08:25:23.225Z,42.8
2017-02-23T08:26:03.882Z,43.47
2017-02-23T08:26:44.520Z,43.37
2017-02-23T08:27:25.156Z,43.18
2017-02-23T08:28:05.909Z,43.47
2017-02-23T08:28:46.543Z,43.37
2017-02-23T08:29:27.199Z,43.11
2017-02-23T08:30:07.909Z,42.82
2017-02-23T08:30:48.557Z,42.91
2017-02-23T08:31:29.187Z,42.91
2017-02-23T08:32:09.872Z,42.82
2017-02-23T08:32:50.535Z,42.89
2017-02-23T08:33:31.171Z,42.7
2017-02-23T08:34:11.912Z,42.89
2017-02-23T08:34:52.544Z,42.91
2017-02-23T08:35:33.172Z,43.01
2017-02-23T08:36:13.825Z,43.01
2017-02-23T08:36:54.528Z,42.89
2017-02-23T08:37:35.156Z,42.91
2017-02-23T08:38:15.811Z,43.11
2017-02-23T08:38:56.442Z,42.82
2017-02-23T08:39:37.066Z,42.91
2017-02-23T08:40:17.809Z,42.8
2017-02-23T08:40:58.493Z,42.7
2017-02-23T08:41:39.200Z,43.47
2017-02-23T08:42:19.756Z,42.8
2017-02-23T08:43:00.489Z,42.8
2017-02-23T08:43:41.193Z,43.28
2017-02-23T08:44:21.826Z,43.4
2017-02-23T08:45:02.509Z,43.28
2017-02-23T08:45:43.205Z,43.47
2017-02-23T08:46:23.835Z,43.18
2017-02-23T08:47:04.495Z,43.37
2017-02-23T08:47:45.137Z,43.3
2017-02-23T08:48:25.771Z,43.47
2017-02-23T08:49:06.425Z,43.08
2017-02-23T08:49:47.094Z,43.08